createdAt,value
2018-12-03T00:01:13.949Z,150.63
2018-12-03T00:04:35.789Z,155.30
2018-12-03T00:07:33.525Z,153.00
2018-12-03T00:10:35.027Z,154.47
2018-12-03T00:13:32.656Z,149.17
2018-12-03T00:16:31.327Z,152.33
2018-12-03T00:19:27.752Z,149.57
2018-12-03T00:22:23.788Z,151.03
2018-12-03T00:25:21.691Z,147.90
2018-12-03T00:28:22.204Z,152.27
2018-12-03T00:31:21.835Z,150.30
2018-12-03T00:34:18.396Z,148.13
2018-12-03T00:37:14.941Z,152.63
2018-12-03T00:40:12.308Z,154.53
2018-12-03T00:43:08.651Z,150.90
2018-12-03T00:46:12.046Z,147.33
2018-12-03T00:49:07.375Z,151.93
2018-12-03T00:52:03.840Z,147.87
2018-12-03T00:55:03.058Z,150.87
2018-12-03T00:57:59.941Z,151.17
2018-12-03T01:00:56.260Z,151.47
2018-12-03T01:03:53.340Z,151.70
2018-12-03T01:06:49.808Z,154.33
2018-12-03T01:09:46.538Z,150.37
2018-12-03T01:12:43.423Z,156.33
2018-12-03T01:15:42.754Z,159.37
2018-12-03T01:18:40.609Z,152.93
2018-12-03T01:21:39.055Z,158.13
2018-12-03T01:24:35.265Z,160.90
2018-12-03T01:27:31.284Z,159.93
2018-12-03T01:30:29.371Z,159.50
2018-12-03T01:33:27.199Z,163.83
2018-12-03T01:36:26.157Z,164.63
2018-12-03T01:39:22.874Z,157.27
2018-12-03T01:42:19.206Z,159.43
2018-12-03T01:45:18.740Z,160.77
2018-12-03T01:48:14.918Z,157.43
2018-12-03T01:51:11.259Z,160.47
2018-12-03T01:54:07.864Z,159.13
2018-12-03T01:57:04.767Z,156.80
2018-12-03T02:00:01.252Z,154.00
2018-12-03T02:03:00.597Z,150.97
2018-12-03T02:05:57.266Z,153.43
2018-12-03T02:08:55.721Z,153.27
2018-12-03T02:11:54.642Z,149.13
2018-12-03T02:14:53.184Z,152.07
2018-12-03T02:17:53.090Z,150.03
2018-12-03T02:20:49.570Z,152.67
2018-12-03T02:23:45.946Z,153.80
2018-12-03T02:26:43.460Z,150.77
2018-12-03T02:29:39.668Z,154.07
2018-12-03T02:32:35.754Z,148.67
2018-12-03T02:35:32.108Z,148.30
2018-12-03T02:38:28.371Z,143.70
2018-12-03T02:41:25.181Z,143.23
2018-12-03T02:44:21.557Z,141.17
2018-12-03T02:47:17.930Z,141.40
2018-12-03T02:50:18.989Z,141.83
2018-12-03T02:53:15.372Z,142.20
2018-12-03T02:56:12.497Z,142.70
2018-12-03T02:59:09.182Z,138.77
2018-12-03T03:02:06.139Z,137.47
2018-12-03T03:05:02.584Z,136.83
2018-12-03T03:07:59.604Z,137.50
2018-12-03T03:10:57.939Z,135.80
2018-12-03T03:13:55.035Z,135.73
2018-12-03T03:16:51.710Z,135.87
2018-12-03T03:19:48.903Z,135.53
2018-12-03T03:22:45.158Z,134.93
2018-12-03T03:25:41.946Z,135.80
2018-12-03T03:28:38.527Z,133.67
2018-12-03T03:31:34.810Z,133.17
2018-12-03T03:34:31.235Z,133.70
2018-12-03T03:37:27.499Z,136.30
2018-12-03T03:40:27.135Z,133.03
2018-12-03T03:43:23.779Z,131.93
2018-12-03T03:46:20.179Z,131.43
2018-12-03T03:49:17.288Z,131.80
2018-12-03T03:52:16.448Z,141.95
2018-12-03T03:55:33.139Z,127.47
2018-12-03T03:58:30.335Z,128.23
2018-12-03T04:01:27.284Z,128.37
2018-12-03T04:04:24.323Z,125.03
2018-12-03T04:07:21.128Z,125.50
2018-12-03T04:10:18.799Z,122.10
2018-12-03T04:13:15.052Z,125.83
2018-12-03T04:16:18.081Z,122.93
2018-12-03T04:19:15.423Z,122.73
2018-12-03T04:22:11.560Z,121.37
2018-12-03T04:25:07.842Z,117.33
2018-12-03T04:28:04.010Z,119.37
2018-12-03T04:31:00.672Z,117.80
2018-12-03T04:33:57.096Z,109.77
2018-12-03T04:36:53.892Z,109.87
2018-12-03T04:39:52.337Z,106.53
2018-12-03T04:42:50.289Z,129.50
2018-12-03T04:45:47.053Z,113.37
2018-12-03T04:48:46.772Z,111.93
2018-12-03T04:51:43.680Z,107.50
2018-12-03T04:54:40.338Z,107.53
2018-12-03T04:57:36.991Z,103.57
2018-12-03T05:00:36.803Z,102.27
2018-12-03T05:03:55.675Z,103.30
2018-12-03T05:06:57.111Z,97.70
2018-12-03T05:09:54.667Z,97.40
2018-12-03T05:13:06.893Z,94.77
2018-12-03T05:39:22.820Z,90.33
2018-12-03T05:45:27.001Z,89.83
2018-12-03T05:48:33.497Z,89.20
2018-12-03T05:51:32.192Z,89.77
2018-12-03T05:54:40.850Z,90.10
2018-12-03T05:57:48.677Z,88.73
2018-12-03T06:04:12.272Z,86.90
2018-12-03T06:07:34.740Z,87.90
2018-12-03T06:17:50.365Z,89.23
2018-12-03T06:21:28.128Z,89.40
2018-12-03T06:24:30.415Z,89.57
2018-12-03T06:34:51.130Z,85.83
2018-12-03T06:38:05.350Z,84.83
2018-12-03T06:41:13.810Z,85.73
2018-12-03T06:54:17.559Z,87.10
2018-12-03T06:57:41.875Z,88.87
2018-12-03T07:00:52.450Z,87.53
2018-12-03T07:56:23.623Z,85.13
2018-12-03T07:59:29.613Z,84.13
2018-12-03T08:03:25.171Z,85.00
2018-12-03T08:09:43.022Z,85.13
2018-12-03T08:11:23.015Z,85.03
2018-12-03T08:12:45.682Z,82.23
2018-12-03T08:15:41.245Z,83.40
2018-12-03T08:22:07.407Z,82.60
2018-12-03T08:25:17.365Z,82.87
2018-12-03T08:28:20.256Z,83.97
2018-12-03T08:31:34.275Z,85.40
2018-12-03T08:34:45.393Z,82.87
2018-12-03T08:37:44.055Z,80.23
2018-12-03T08:57:44.264Z,78.17
2018-12-03T09:04:04.028Z,81.00
2018-12-03T09:07:02.603Z,80.90
2018-12-03T09:11:21.983Z,81.67
2018-12-03T09:23:36.603Z,79.53
